This is the latest recevied weather packets stored in our database for station/object W0PE-1. If no packets are shown the sender has not sent any weather packets the latest 10 day(s).
| Time | Temp. | Humidity | Pressure | Rain* | Wind** | Luminosity | Snow |
|---|---|---|---|---|---|---|---|
| 1778192143 | 25° C | 56% | 1013.1 hPa | 0 mm | - | - | - |
| 1778191242 | 25.56° C | 54% | 1013.3 hPa | 0 mm | - | - | - |
| 1778190340 | 25° C | 56% | 1013.5 hPa | 0 mm | - | - | - |
| 1778189446 | 25° C | 56% | 1013.7 hPa | 0 mm | - | - | - |
| 1778188539 | 25° C | 56% | 1013.6 hPa | 0 mm | - | - | - |
| 1778187641 | 25.56° C | 56% | 1013.8 hPa | 0 mm | - | - | - |
| 1778186739 | 25.56° C | 55% | 1014 hPa | 0 mm | - | - | - |
| 1778185841 | 25.56° C | 56% | 1013.9 hPa | 0 mm | - | - | - |
| 1778184937 | 25.56° C | 56% | 1014.1 hPa | 0 mm | - | - | - |
| 1778184033 | 26.11° C | 56% | 1014.2 hPa | 0 mm | - | - | - |
| 1778183133 | 26.11° C | 54% | 1014.4 hPa | 0 mm | - | - | - |
| 1778182230 | 25.56° C | 56% | 1014.4 hPa | 0 mm | - | - | - |
| 1778181326 | 25° C | 55% | 1014.6 hPa | 0 mm | - | - | - |
| 1778180423 | 25° C | 56% | 1014.9 hPa | 0 mm | - | - | - |
| 1778179521 | 24.44° C | 58% | 1015.2 hPa | 0 mm | - | - | - |
| 1778178619 | 23.89° C | 58% | 1015.3 hPa | 0 mm | - | - | - |
| 1778177715 | 22.78° C | 61% | 1015.3 hPa | 0 mm | - | - | - |
| 1778176815 | 22.78° C | 61% | 1015.5 hPa | 0 mm | - | - | - |
| 1778175916 | 22.22° C | 64% | 1015.5 hPa | 0 mm | - | - | - |
| 1778175022 | 22.22° C | 66% | 1015.6 hPa | 0 mm | - | - | - |
| 1778174107 | 21.11° C | 67% | 1015.6 hPa | 0 mm | - | - | - |
| 1778173204 | 21.11° C | 68% | 1015.7 hPa | 0 mm | - | - | - |
| 1778172361 | 20.56° C | 70% | 1015.8 hPa | 0 mm | - | - | - |
| 1778171471 | 20° C | 73% | 1015.9 hPa | 0 mm | - | - | - |
| 1778170553 | 18.89° C | 78% | 1015.9 hPa | 0 mm | - | - | - |
* Rain latest hour (hover to see other rain measurements)
** Current wind speed in m/s (hover to see current wind gust speed)